MMLP/LAP METAR and TAF weather

Enter ICAO airport designator
Station Type Date Time Source
MMLP METAR 2019/02/22 22:41 UTC NOAA

MMLP 222241Z 26011KT 10SM SKC 23/05 A3003 RMK ISOL SC CI


Station Type Date Time Source
MMLP Decoded METAR 2019/02/22 22:41 UTC NOAA

La Paz International Airport, Mexico (MMLP) 24-04N 110-22W
Feb 22, 2019 - 05:41 PM EST / 2019.02.22 2241 UTC
Wind: from the W (260 degrees) at 13 MPH (11 KT):0
Visibility: 10 mile(s):0
Sky conditions: clear
Temperature: 73 F (23 C)
Dew Point: 41 F (5 C)
Relative Humidity: 31%
Pressure (altimeter): 30.03 in. Hg (1016 hPa)
ob: MMLP 222241Z 26011KT 10SM SKC 23/05 A3003 RMK ISOL SC CI
cycle: 22

Station Type Date Time Source
MMLP TAF 2019/02/22 18:45 UTC NOAA

TAF MMLP 221643Z 2218/2318 23005KT P6SM SCT040
BECMG 2220/2221 23012KT SCT040 SCT250
FM230200 32005KT P6SM SCT030 BKN250
BECMG 2305/2306 03008KT
FM231000 03012KT P6SM BKN030


Example: see airport list